Time;durP1;ratioP1;P1;durP2;ratioP2;P2;SDS_P1;SDS_P2;PMS_P1;PMS_P2;Temp;Humidity;BMP_temperature;BMP_pressure;BME280_temperature;BME280_humidity;BME280_pressure;Samples;Min_cycle;Max_cycle;Signal;HPM_P1;HPM_P2
2023/10/23 00:02:26;;;;;;;9.13;5.50;;;11.00;83.50;;;;;;9168510;19;20034;-68
2023/10/23 00:05:36;;;;;;;8.77;5.88;;;11.00;83.60;;;;;;9165907;19;20015;-69
2023/10/23 00:08:42;;;;;;;11.43;5.45;;;11.00;83.50;;;;;;9164422;19;20014;-69
2023/10/23 00:11:52;;;;;;;9.45;5.60;;;10.90;83.50;;;;;;9165370;19;20017;-67
2023/10/23 00:14:57;;;;;;;8.93;5.72;;;10.90;83.50;;;;;;9162869;19;20026;-69
2023/10/23 00:18:05;;;;;;;9.00;5.75;;;10.90;83.60;;;;;;9164472;19;20433;-68
2023/10/23 00:21:11;;;;;;;9.80;5.53;;;10.80;83.50;;;;;;9165664;19;20018;-69
2023/10/23 00:24:18;;;;;;;8.93;5.63;;;10.80;83.60;;;;;;9163987;19;20029;-68
2023/10/23 00:27:27;;;;;;;10.40;5.78;;;10.80;83.70;;;;;;9164836;19;20380;-69
2023/10/23 00:30:35;;;;;;;8.23;5.22;;;10.80;83.70;;;;;;9166660;19;20018;-68
2023/10/23 00:33:41;;;;;;;9.05;5.30;;;10.80;83.70;;;;;;9165137;19;20014;-68
2023/10/23 00:36:52;;;;;;;9.45;5.60;;;10.70;83.80;;;;;;9161704;19;20014;-68
2023/10/23 00:39:57;;;;;;;8.65;5.65;;;10.70;83.80;;;;;;9164788;19;20492;-69
2023/10/23 00:43:20;;;;;;;7.63;4.80;;;11.00;84.10;;;;;;9160875;19;20010;-68
2023/10/23 00:46:31;;;;;;;9.32;5.35;;;10.70;83.90;;;;;;9163152;19;20022;-69
2023/10/23 00:49:39;;;;;;;7.38;5.05;;;10.70;83.90;;;;;;9164684;19;20017;-69
2023/10/23 00:52:45;;;;;;;11.07;5.53;;;10.70;83.90;;;;;;9162149;19;20015;-69
2023/10/23 00:55:54;;;;;;;6.85;4.95;;;10.60;84.10;;;;;;9169630;19;20423;-68
2023/10/23 00:59:02;;;;;;;8.93;5.75;;;10.80;84.10;;;;;;9174418;19;20424;-68
2023/10/23 01:02:09;;;;;;;8.75;4.85;;;10.60;83.90;;;;;;9172853;19;20846;-68
2023/10/23 01:05:15;;;;;;;12.43;5.88;;;10.60;84.00;;;;;;9172593;19;20040;-70
2023/10/23 01:08:23;;;;;;;10.95;5.47;;;10.60;84.90;;;;;;9173198;19;21066;-67
2023/10/23 01:11:28;;;;;;;8.52;5.55;;;10.50;84.00;;;;;;9181240;19;20053;-70
2023/10/23 01:14:39;;;;;;;11.25;6.13;;;10.50;83.90;;;;;;9180814;19;20043;-69
2023/10/23 01:17:44;;;;;;;10.10;5.00;;;10.50;84.00;;;;;;9175714;19;20022;-68
2023/10/23 01:20:52;;;;;;;9.05;5.65;;;10.50;84.70;;;;;;9173650;19;20025;-69
2023/10/23 01:24:00;;;;;;;8.25;5.40;;;10.40;84.00;;;;;;9171439;19;20344;-69
2023/10/23 01:27:10;;;;;;;8.38;5.05;;;10.40;85.00;;;;;;9173260;19;20018;-69
2023/10/23 01:30:16;;;;;;;10.75;5.05;;;10.40;85.20;;;;;;9170821;19;20018;-69
2023/10/23 01:33:23;;;;;;;9.45;5.38;;;10.50;88.40;;;;;;9170874;19;20006;-69
2023/10/23 01:36:29;;;;;;;7.00;4.90;;;10.50;87.80;;;;;;9170804;19;20034;-69
2023/10/23 01:39:36;;;;;;;11.55;6.10;;;10.40;86.60;;;;;;9170768;19;20021;-69
2023/10/23 01:42:46;;;;;;;14.63;7.15;;;10.30;85.40;;;;;;9168454;19;20038;-68
2023/10/23 01:45:54;;;;;;;20.10;8.55;;;10.20;84.20;;;;;;9168583;19;20019;-70
2023/10/23 01:49:00;;;;;;;20.52;9.00;;;10.20;84.00;;;;;;9171494;19;20011;-67
2023/10/23 01:52:07;;;;;;;19.65;8.60;;;10.20;84.70;;;;;;9170313;19;20021;-71
2023/10/23 01:55:13;;;;;;;18.58;9.38;;;10.30;87.10;;;;;;9169253;19;20141;-67
2023/10/23 01:58:23;;;;;;;16.05;7.88;;;10.10;85.20;;;;;;9169750;19;20014;-67
2023/10/23 02:01:28;;;;;;;14.55;7.95;;;10.20;85.80;;;;;;9171585;19;20028;-68
2023/10/23 02:04:38;;;;;;;14.15;7.93;;;10.10;86.20;;;;;;9169364;19;20021;-67
2023/10/23 02:07:44;;;;;;;14.63;8.05;;;10.10;84.80;;;;;;9169015;19;20012;-67
2023/10/23 02:10:51;;;;;;;12.02;6.70;;;10.00;84.00;;;;;;9171168;19;20042;-67
2023/10/23 02:13:59;;;;;;;12.40;7.43;;;10.00;84.10;;;;;;9171922;19;20023;-69
2023/10/23 02:17:07;;;;;;;12.65;6.80;;;10.00;84.20;;;;;;9166762;19;20459;-70
2023/10/23 02:20:13;;;;;;;10.63;6.43;;;10.00;84.80;;;;;;9164584;19;20006;-67
2023/10/23 02:23:21;;;;;;;11.07;6.03;;;9.90;84.30;;;;;;9167077;19;20114;-68
2023/10/23 02:26:27;;;;;;;9.23;6.15;;;9.90;84.50;;;;;;9165526;19;20506;-69
2023/10/23 02:29:40;;;;;;;11.57;6.15;;;10.00;84.70;;;;;;9167073;19;20491;-68
2023/10/23 02:32:46;;;;;;;10.40;6.22;;;9.90;85.00;;;;;;9167147;19;20046;-68
2023/10/23 02:35:53;;;;;;;8.80;6.22;;;10.00;85.10;;;;;;9165692;19;20349;-69
2023/10/23 02:38:59;;;;;;;9.23;6.20;;;10.00;85.10;;;;;;9167765;19;20479;-68
2023/10/23 02:42:07;;;;;;;8.00;5.45;;;10.00;85.70;;;;;;9161924;19;20014;-69
2023/10/23 02:45:15;;;;;;;9.63;5.72;;;10.00;86.80;;;;;;9167203;19;20603;-68
2023/10/23 02:48:23;;;;;;;8.82;6.50;;;10.00;86.40;;;;;;9166530;19;20718;-68
2023/10/23 02:51:28;;;;;;;13.52;6.70;;;10.10;86.40;;;;;;9165233;19;20081;-67
2023/10/23 02:54:36;;;;;;;8.75;6.57;;;10.20;86.10;;;;;;9166337;19;20277;-68
2023/10/23 02:57:41;;;;;;;9.85;6.82;;;10.00;85.60;;;;;;9162771;19;20015;-67
2023/10/23 03:00:52;;;;;;;7.20;5.75;;;10.10;86.00;;;;;;9165857;19;20053;-67
2023/10/23 03:03:57;;;;;;;8.27;6.07;;;10.20;85.90;;;;;;9163711;19;20010;-68
2023/10/23 03:07:05;;;;;;;7.45;5.95;;;10.10;85.60;;;;;;9164349;19;20357;-69
2023/10/23 03:10:11;;;;;;;8.05;5.70;;;10.20;86.00;;;;;;9163964;19;20082;-68
2023/10/23 03:13:19;;;;;;;8.80;6.45;;;10.20;85.70;;;;;;9166855;19;20033;-68
2023/10/23 03:16:27;;;;;;;7.47;5.88;;;10.20;86.30;;;;;;9162256;19;20042;-69
2023/10/23 03:19:35;;;;;;;7.57;6.13;;;10.20;86.00;;;;;;9018080;19;2874367;-68
2023/10/23 03:22:41;;;;;;;8.15;6.30;;;10.30;86.10;;;;;;9168852;19;20023;-69
2023/10/23 03:25:48;;;;;;;7.63;5.90;;;10.30;85.70;;;;;;9167107;19;20018;-68
2023/10/23 03:28:54;;;;;;;9.73;7.18;;;10.30;85.60;;;;;;9166171;19;20022;-69
2023/10/23 03:32:04;;;;;;;9.20;6.55;;;10.30;85.60;;;;;;9167985;19;20030;-68
2023/10/23 03:35:10;;;;;;;8.82;6.40;;;10.30;85.80;;;;;;9167672;19;20023;-68
2023/10/23 03:38:17;;;;;;;8.75;6.68;;;10.40;85.80;;;;;;9166977;19;20026;-69
2023/10/23 03:41:25;;;;;;;12.38;6.97;;;10.50;86.10;;;;;;9157177;19;20044;-68
2023/10/23 03:44:33;;;;;;;15.75;6.97;;;10.40;85.70;;;;;;9163408;19;20018;-68
2023/10/23 03:47:41;;;;;;;9.43;7.25;;;10.50;86.40;;;;;;9163753;19;20058;-68
2023/10/23 03:50:49;;;;;;;8.98;6.93;;;10.50;86.10;;;;;;9161791;19;20018;-68
2023/10/23 03:53:54;;;;;;;9.95;7.43;;;10.50;85.90;;;;;;9164159;19;20101;-68
2023/10/23 03:57:02;;;;;;;10.40;7.47;;;10.60;86.10;;;;;;9163486;19;20360;-68
2023/10/23 04:00:10;;;;;;;11.82;7.88;;;10.60;85.90;;;;;;9165822;19;20026;-68
2023/10/23 04:03:23;;;;;;;13.37;7.80;;;10.60;86.00;;;;;;9166342;19;20029;-70
2023/10/23 04:06:29;;;;;;;11.23;7.43;;;10.60;86.80;;;;;;9165716;19;20022;-68
2023/10/23 04:09:36;;;;;;;11.80;8.05;;;10.60;86.00;;;;;;9163729;19;20011;-68
2023/10/23 04:12:42;;;;;;;10.73;7.97;;;10.70;86.10;;;;;;9162534;19;20656;-68
2023/10/23 04:15:56;;;;;;;10.43;7.75;;;10.60;85.90;;;;;;9163744;19;20010;-69
2023/10/23 04:19:05;;;;;;;12.32;7.43;;;10.70;86.20;;;;;;9164528;19;20023;-68
2023/10/23 04:22:12;;;;;;;12.05;8.10;;;10.70;86.00;;;;;;9163650;19;20014;-68
2023/10/23 04:25:18;;;;;;;11.18;8.07;;;10.80;86.10;;;;;;9164168;19;20783;-70
2023/10/23 04:28:26;;;;;;;11.43;8.05;;;10.70;86.20;;;;;;9165803;19;20022;-69
2023/10/23 04:31:31;;;;;;;12.20;8.38;;;10.80;86.30;;;;;;9173317;19;20018;-68
2023/10/23 04:34:41;;;;;;;10.25;7.22;;;10.80;86.20;;;;;;9172821;19;20467;-68
2023/10/23 04:37:47;;;;;;;12.05;7.88;;;10.80;86.20;;;;;;9169806;19;20094;-68
2023/10/23 04:40:55;;;;;;;11.20;7.80;;;10.90;86.30;;;;;;9173600;19;20610;-68
2023/10/23 04:44:01;;;;;;;10.25;7.63;;;10.90;86.30;;;;;;9168656;19;20570;-69
2023/10/23 04:47:08;;;;;;;11.68;7.72;;;10.90;86.30;;;;;;9173805;19;20014;-69
2023/10/23 04:50:16;;;;;;;11.32;8.07;;;10.90;86.50;;;;;;9173173;19;20014;-69
2023/10/23 04:53:24;;;;;;;12.70;8.85;;;10.90;86.40;;;;;;9172520;19;20429;-69
2023/10/23 04:56:30;;;;;;;11.63;8.10;;;10.90;86.70;;;;;;9171894;19;20018;-69
2023/10/23 04:59:37;;;;;;;14.07;8.82;;;10.90;86.50;;;;;;9174212;19;20029;-68
2023/10/23 05:02:43;;;;;;;11.35;8.02;;;11.10;86.80;;;;;;9174426;19;20018;-68
2023/10/23 05:05:53;;;;;;;13.13;8.52;;;11.00;87.10;;;;;;9173027;19;20126;-68
2023/10/23 05:08:59;;;;;;;12.40;8.77;;;11.00;87.10;;;;;;9172398;19;20054;-69
2023/10/23 05:12:07;;;;;;;14.85;9.73;;;11.00;87.30;;;;;;9173314;19;20601;-69
2023/10/23 05:15:12;;;;;;;17.33;10.63;;;11.00;86.90;;;;;;9170601;19;20033;-69
2023/10/23 05:18:20;;;;;;;15.75;11.38;;;11.00;87.10;;;;;;9170798;19;20025;-68
2023/10/23 05:21:28;;;;;;;15.27;10.43;;;11.00;87.40;;;;;;9173050;19;20089;-69
2023/10/23 05:24:36;;;;;;;15.32;9.00;;;11.10;86.90;;;;;;9170802;19;20014;-69
2023/10/23 05:27:42;;;;;;;13.50;9.07;;;11.10;86.80;;;;;;9169601;19;20022;-71
2023/10/23 05:30:52;;;;;;;14.68;9.85;;;11.10;86.90;;;;;;9174373;19;20025;-68
2023/10/23 05:33:58;;;;;;;13.15;9.63;;;11.20;87.50;;;;;;9170219;19;20018;-68
2023/10/23 05:37:08;;;;;;;20.20;8.70;;;11.20;87.20;;;;;;9171143;19;20011;-67
2023/10/23 05:40:14;;;;;;;15.23;9.65;;;11.20;87.20;;;;;;9172140;19;20087;-69
2023/10/23 05:43:22;;;;;;;15.20;10.38;;;11.20;87.30;;;;;;9166473;19;20070;-69
2023/10/23 05:46:28;;;;;;;16.77;10.95;;;11.20;87.20;;;;;;9171390;19;20010;-68
2023/10/23 05:49:36;;;;;;;19.67;10.30;;;11.30;87.60;;;;;;9171299;19;20025;-69
2023/10/23 05:52:44;;;;;;;15.13;9.77;;;11.20;87.50;;;;;;9171242;19;20019;-68
2023/10/23 05:55:52;;;;;;;22.60;12.95;;;11.20;87.70;;;;;;9171953;19;20018;-68
2023/10/23 05:58:58;;;;;;;20.35;10.88;;;11.30;88.40;;;;;;9165581;19;20044;-69
2023/10/23 06:02:05;;;;;;;18.73;10.82;;;11.30;88.00;;;;;;9168760;19;20011;-68
2023/10/23 06:05:11;;;;;;;15.32;10.20;;;11.20;87.70;;;;;;9167450;19;20876;-69
2023/10/23 06:08:21;;;;;;;16.15;10.48;;;11.30;87.60;;;;;;9168125;19;20014;-71
2023/10/23 06:11:27;;;;;;;18.85;11.23;;;11.30;88.10;;;;;;9169467;19;20048;-67
2023/10/23 06:14:35;;;;;;;19.73;11.20;;;11.50;88.20;;;;;;9166213;19;20025;-68
2023/10/23 06:17:40;;;;;;;18.58;11.57;;;11.40;88.00;;;;;;9164857;19;20011;-70
2023/10/23 06:20:48;;;;;;;20.85;11.98;;;11.40;88.10;;;;;;9162345;19;21250;-69
2023/10/23 06:23:56;;;;;;;21.33;13.05;;;11.40;88.20;;;;;;9166415;19;20534;-71
2023/10/23 06:27:03;;;;;;;26.63;12.23;;;11.50;88.40;;;;;;9166061;19;20018;-70
2023/10/23 06:30:10;;;;;;;23.42;12.57;;;11.50;88.40;;;;;;9165321;19;20022;-69
2023/10/23 06:33:17;;;;;;;25.05;13.73;;;11.50;88.50;;;;;;9166820;19;20383;-69
2023/10/23 06:36:23;;;;;;;28.30;14.38;;;11.60;89.50;;;;;;9164464;19;20110;-69
2023/10/23 06:39:33;;;;;;;28.52;16.02;;;11.60;89.40;;;;;;9162527;19;20015;-69
2023/10/23 06:42:38;;;;;;;28.95;14.82;;;11.60;89.40;;;;;;9163596;19;20033;-69
2023/10/23 06:45:46;;;;;;;22.05;13.10;;;11.70;89.60;;;;;;9166422;19;20010;-70
2023/10/23 06:49:01;;;;;;;20.80;11.70;;;11.60;89.60;;;;;;9168172;19;20022;-69
2023/10/23 06:52:08;;;;;;;23.08;12.98;;;11.70;90.00;;;;;;9164786;19;20519;-70
2023/10/23 06:55:17;;;;;;;23.58;13.23;;;11.70;89.40;;;;;;9168525;19;20037;-70
2023/10/23 06:58:25;;;;;;;19.38;12.07;;;11.70;89.80;;;;;;9167119;19;20022;-69
2023/10/23 07:01:30;;;;;;;24.20;12.18;;;11.70;89.50;;;;;;9167562;19;20022;-71
2023/10/23 07:04:51;;;;;;;20.42;11.73;;;11.80;89.50;;;;;;9169756;19;20757;-70
2023/10/23 07:07:56;;;;;;;19.52;11.68;;;11.70;89.40;;;;;;9167396;19;20086;-70
2023/10/23 07:11:14;;;;;;;25.67;15.85;;;11.80;89.70;;;;;;9170178;19;20011;-69
2023/10/23 07:14:20;;;;;;;19.77;12.52;;;11.90;89.90;;;;;;9169269;19;20019;-70
2023/10/23 07:17:27;;;;;;;19.95;11.98;;;11.90;90.10;;;;;;9167391;19;20030;-70
2023/10/23 07:20:33;;;;;;;18.75;12.13;;;12.00;90.30;;;;;;9166898;19;20078;-70
2023/10/23 07:23:40;;;;;;;24.10;11.85;;;11.90;88.70;;;;;;9167167;19;20472;-68
2023/10/23 07:26:49;;;;;;;17.48;10.35;;;11.80;87.30;;;;;;9168038;19;20018;-68
2023/10/23 07:29:56;;;;;;;21.67;10.57;;;11.80;87.40;;;;;;9168900;19;20017;-68
2023/10/23 07:33:02;;;;;;;23.10;10.68;;;11.90;87.30;;;;;;9167232;19;20018;-70
2023/10/23 07:36:13;;;;;;;18.48;10.73;;;11.80;87.30;;;;;;9166877;19;20019;-69
2023/10/23 07:39:19;;;;;;;20.85;12.63;;;11.90;87.40;;;;;;9165820;19;20018;-68
2023/10/23 07:42:29;;;;;;;18.63;11.73;;;11.90;87.50;;;;;;9164010;19;20510;-68
2023/10/23 07:45:39;;;;;;;19.95;11.18;;;11.90;87.70;;;;;;9167303;19;20021;-70
2023/10/23 07:48:47;;;;;;;18.08;10.65;;;11.90;87.60;;;;;;9168945;19;20018;-72
2023/10/23 07:51:54;;;;;;;19.58;11.18;;;11.90;87.80;;;;;;9158939;19;20014;-68
2023/10/23 07:55:02;;;;;;;20.23;11.02;;;12.00;87.70;;;;;;9164911;19;20029;-69
2023/10/23 07:58:12;;;;;;;18.27;11.32;;;11.90;88.00;;;;;;9165569;19;20026;-68
2023/10/23 08:01:20;;;;;;;21.88;11.95;;;11.90;87.70;;;;;;9166139;19;20018;-67
2023/10/23 08:04:25;;;;;;;22.08;12.88;;;11.90;87.70;;;;;;9163803;19;20029;-70
2023/10/23 08:07:33;;;;;;;20.83;12.38;;;12.00;87.70;;;;;;9164970;19;20017;-68
2023/10/23 08:10:38;;;;;;;31.55;16.88;;;12.00;88.10;;;;;;9165160;19;20021;-70
2023/10/23 08:13:55;;;;;;;24.17;13.32;;;12.00;88.90;;;;;;9160514;19;20013;-66
2023/10/23 08:17:03;;;;;;;25.17;13.93;;;12.00;88.00;;;;;;9163840;19;20027;-67
2023/10/23 08:20:12;;;;;;;27.95;13.90;;;12.10;88.90;;;;;;9165017;19;20021;-66
2023/10/23 08:23:17;;;;;;;25.60;14.45;;;12.10;88.60;;;;;;9167333;19;20480;-67
2023/10/23 08:26:25;;;;;;;28.83;15.43;;;12.10;88.90;;;;;;9165729;19;20025;-67
2023/10/23 08:29:34;;;;;;;31.70;15.45;;;12.10;89.90;;;;;;9163363;19;20014;-67
2023/10/23 08:32:41;;;;;;;33.35;15.50;;;12.20;90.60;;;;;;9164752;19;20022;-67
2023/10/23 08:35:57;;;;;;;33.95;16.35;;;12.90;90.10;;;;;;9163622;19;21126;-68
2023/10/23 08:39:05;;;;;;;30.20;16.92;;;12.10;87.50;;;;;;9160065;19;20370;-66
2023/10/23 08:42:11;;;;;;;37.05;17.02;;;12.10;87.50;;;;;;9161494;19;20021;-67
2023/10/23 08:45:21;;;;;;;35.25;17.27;;;12.10;87.60;;;;;;9161831;19;20014;-67
2023/10/23 08:48:26;;;;;;;32.97;16.80;;;12.10;87.60;;;;;;9162212;19;20303;-70
2023/10/23 08:51:34;;;;;;;36.58;18.13;;;12.10;87.50;;;;;;9160055;19;20011;-67
2023/10/23 08:54:41;;;;;;;36.88;18.45;;;12.10;87.50;;;;;;9166031;19;20014;-68
2023/10/23 08:57:55;;;;;;;32.42;16.80;;;12.20;87.70;;;;;;9162870;19;20869;-68
2023/10/23 09:01:03;;;;;;;36.10;18.02;;;12.20;87.60;;;;;;9159855;19;20022;-67
2023/10/23 09:04:12;;;;;;;35.42;17.73;;;12.20;87.60;;;;;;9164782;19;20015;-68
2023/10/23 09:07:18;;;;;;;36.30;18.27;;;12.30;87.70;;;;;;9164082;19;20025;-67
2023/10/23 09:10:26;;;;;;;39.80;18.80;;;12.30;87.80;;;;;;9163969;19;20018;-67
2023/10/23 09:13:37;;;;;;;40.55;18.08;;;12.30;87.90;;;;;;9160960;19;20063;-67
2023/10/23 09:16:47;;;;;;;36.55;18.27;;;12.40;88.50;;;;;;9170638;19;20014;-67
2023/10/23 09:19:53;;;;;;;36.38;18.95;;;12.40;87.90;;;;;;9168294;19;20115;-69
2023/10/23 09:23:00;;;;;;;44.47;19.05;;;12.50;87.90;;;;;;9169489;19;20036;-67
2023/10/23 09:26:06;;;;;;;37.38;18.80;;;12.50;87.90;;;;;;9171627;19;20361;-68
2023/10/23 09:29:13;;;;;;;35.85;17.40;;;12.50;87.90;;;;;;9170898;19;20397;-68
2023/10/23 09:32:21;;;;;;;34.15;18.95;;;12.60;88.00;;;;;;9173058;19;20018;-68
2023/10/23 09:35:32;;;;;;;42.72;18.58;;;12.70;88.10;;;;;;9170169;19;20022;-68
2023/10/23 09:38:39;;;;;;;45.33;18.33;;;12.60;88.10;;;;;;9172658;19;20361;-68
2023/10/23 09:41:48;;;;;;;40.25;17.70;;;12.70;88.10;;;;;;9170251;19;20018;-67
2023/10/23 09:44:56;;;;;;;41.17;19.27;;;12.80;88.10;;;;;;9169262;19;20104;-67
2023/10/23 09:48:10;;;;;;;37.45;18.25;;;12.90;88.40;;;;;;9170473;19;20030;-67
2023/10/23 09:51:18;;;;;;;42.65;19.92;;;12.90;88.60;;;;;;9171750;19;20935;-68
2023/10/23 09:54:26;;;;;;;38.97;18.17;;;12.90;88.30;;;;;;9165483;19;20010;-67
2023/10/23 09:57:37;;;;;;;38.50;18.45;;;13.00;88.30;;;;;;9165530;19;20022;-67
2023/10/23 10:00:48;;;;;;;41.83;18.35;;;13.20;88.60;;;;;;9168088;19;20014;-69
2023/10/23 10:04:00;;;;;;;37.35;18.15;;;13.20;88.50;;;;;;9168861;19;20019;-67
2023/10/23 10:07:11;;;;;;;40.20;18.60;;;13.20;88.50;;;;;;9170577;19;20025;-68
2023/10/23 10:10:17;;;;;;;33.00;17.77;;;13.30;88.40;;;;;;9167466;19;20579;-67
2023/10/23 10:13:26;;;;;;;39.38;18.55;;;13.40;88.40;;;;;;9160524;19;20025;-68
2023/10/23 10:16:32;;;;;;;35.95;19.15;;;13.50;88.40;;;;;;9165538;19;20061;-69
2023/10/23 10:19:43;;;;;;;53.42;20.50;;;13.50;88.50;;;;;;9166645;19;20025;-68
2023/10/23 10:22:56;;;;;;;36.03;18.70;;;13.60;88.70;;;;;;9168851;19;20922;-69
2023/10/23 10:26:04;;;;;;;39.30;18.35;;;13.80;88.70;;;;;;9165996;19;20461;-68
2023/10/23 10:29:11;;;;;;;34.10;18.25;;;13.90;88.60;;;;;;9169851;19;20492;-67
2023/10/23 10:32:20;;;;;;;43.38;20.23;;;14.00;88.60;;;;;;9168973;19;20014;-69
2023/10/23 10:35:34;;;;;;;32.25;17.73;;;14.10;88.50;;;;;;9169217;19;20019;-68
2023/10/23 10:38:49;;;;;;;35.13;18.15;;;14.20;88.30;;;;;;9165279;19;20022;-66
2023/10/23 10:41:57;;;;;;;35.83;17.10;;;14.40;88.30;;;;;;9164085;19;20010;-67
2023/10/23 10:45:14;;;;;;;32.30;16.92;;;14.30;88.10;;;;;;9164074;19;20663;-67
2023/10/23 10:48:20;;;;;;;36.65;17.17;;;14.60;88.10;;;;;;9164796;19;20025;-67
2023/10/23 10:51:31;;;;;;;35.55;18.15;;;14.50;87.90;;;;;;9165628;19;20018;-68
2023/10/23 10:54:37;;;;;;;35.97;16.88;;;14.70;87.80;;;;;;9166331;19;20023;-68
2023/10/23 10:57:47;;;;;;;33.75;16.58;;;14.80;87.60;;;;;;9166777;19;20014;-67
2023/10/23 11:00:53;;;;;;;33.72;16.77;;;14.90;87.60;;;;;;9164818;19;20025;-67
2023/10/23 11:04:02;;;;;;;28.45;16.30;;;15.00;87.60;;;;;;9166482;19;20018;-67
2023/10/23 11:07:12;;;;;;;25.50;14.80;;;15.10;87.50;;;;;;9165594;19;20022;-67
2023/10/23 11:10:20;;;;;;;27.55;16.02;;;15.10;87.40;;;;;;9164538;19;20520;-67
2023/10/23 11:13:26;;;;;;;30.67;15.45;;;15.20;87.30;;;;;;9157745;19;20310;-67
2023/10/23 11:16:35;;;;;;;26.83;14.65;;;15.10;87.20;;;;;;9166593;19;20019;-67
2023/10/23 11:19:41;;;;;;;24.63;14.25;;;15.30;87.10;;;;;;9165436;19;20360;-67
2023/10/23 11:22:51;;;;;;;27.77;15.05;;;15.40;87.10;;;;;;9164911;19;20022;-67
2023/10/23 11:25:57;;;;;;;30.27;14.45;;;15.40;87.00;;;;;;9166672;19;20017;-69
2023/10/23 11:29:05;;;;;;;23.65;12.57;;;15.50;87.60;;;;;;9166939;19;20109;-66
2023/10/23 11:32:11;;;;;;;29.10;14.13;;;15.50;86.70;;;;;;9166440;19;20045;-66
2023/10/23 11:35:20;;;;;;;25.17;13.00;;;15.60;86.80;;;;;;9166887;19;20644;-66
2023/10/23 11:38:29;;;;;;;30.30;13.45;;;15.70;86.60;;;;;;9164141;19;20015;-66
2023/10/23 11:41:37;;;;;;;31.17;13.57;;;15.70;86.50;;;;;;9163217;19;20014;-66
2023/10/23 11:44:43;;;;;;;23.02;12.90;;;15.80;86.50;;;;;;9166988;19;20035;-67
2023/10/23 11:47:52;;;;;;;21.15;12.15;;;15.80;86.30;;;;;;9161572;19;20567;-67
2023/10/23 11:50:59;;;;;;;17.27;10.85;;;15.90;86.20;;;;;;9165071;19;20560;-68
2023/10/23 11:54:09;;;;;;;21.75;12.10;;;15.90;86.00;;;;;;9166405;19;20019;-67
2023/10/23 11:57:15;;;;;;;27.33;12.82;;;16.00;86.00;;;;;;9165851;19;20785;-67
2023/10/23 12:00:24;;;;;;;18.50;11.23;;;16.00;86.20;;;;;;9165178;19;20037;-67
2023/10/23 12:03:30;;;;;;;24.60;11.43;;;16.20;86.60;;;;;;9165307;19;20018;-66
2023/10/23 12:06:38;;;;;;;22.70;11.15;;;16.10;85.60;;;;;;9163399;19;20334;-67
2023/10/23 12:09:47;;;;;;;21.02;10.82;;;16.10;85.40;;;;;;9163330;19;20030;-66
2023/10/23 12:12:55;;;;;;;28.75;11.98;;;16.20;85.40;;;;;;9156827;19;20030;-68
2023/10/23 12:16:04;;;;;;;21.15;11.25;;;16.20;85.20;;;;;;9160599;19;20065;-67
2023/10/23 12:19:11;;;;;;;19.92;11.65;;;16.20;85.20;;;;;;9163353;19;20015;-66
2023/10/23 12:22:17;;;;;;;18.75;10.90;;;16.20;85.00;;;;;;9160494;19;20073;-67
2023/10/23 12:25:27;;;;;;;19.27;11.15;;;16.30;85.00;;;;;;9161928;19;20033;-67
2023/10/23 12:28:33;;;;;;;23.90;13.02;;;16.30;84.90;;;;;;9165090;19;20022;-66
2023/10/23 12:31:41;;;;;;;22.58;11.55;;;16.30;85.60;;;;;;9162345;19;20014;-66
2023/10/23 12:35:08;;;;;;;22.92;11.90;;;16.30;84.70;;;;;;9163535;19;20011;-66
2023/10/23 12:38:16;;;;;;;19.83;11.52;;;16.30;84.60;;;;;;9161452;19;20041;-66
2023/10/23 12:41:24;;;;;;;27.70;11.93;;;16.30;84.50;;;;;;9162610;19;20632;-66
2023/10/23 12:44:32;;;;;;;21.67;11.35;;;16.30;84.40;;;;;;9163178;19;20022;-67
2023/10/23 12:47:37;;;;;;;23.00;11.45;;;16.30;84.40;;;;;;9160839;19;20021;-67
2023/10/23 12:50:45;;;;;;;24.80;12.00;;;16.40;84.40;;;;;;9169063;19;20376;-67
2023/10/23 12:53:51;;;;;;;19.67;11.50;;;16.40;84.20;;;;;;9172571;19;20022;-66
2023/10/23 12:57:03;;;;;;;24.13;11.63;;;16.30;84.60;;;;;;9172865;19;20018;-67
2023/10/23 13:00:13;;;;;;;24.90;10.90;;;16.50;85.50;;;;;;9171649;19;20372;-66
2023/10/23 13:03:21;;;;;;;19.02;11.05;;;16.30;84.00;;;;;;9169100;19;20014;-67
2023/10/23 13:06:26;;;;;;;23.45;10.90;;;16.30;83.80;;;;;;9168476;19;20587;-66
2023/10/23 13:09:34;;;;;;;18.08;11.63;;;16.30;83.80;;;;;;9170619;19;20363;-66
2023/10/23 13:12:42;;;;;;;19.65;11.32;;;16.30;83.70;;;;;;9163575;19;20040;-69
2023/10/23 13:15:49;;;;;;;19.15;10.98;;;16.30;83.70;;;;;;9169789;19;20038;-67
2023/10/23 13:18:55;;;;;;;22.05;11.63;;;16.30;83.70;;;;;;9169634;19;20014;-67
2023/10/23 13:22:04;;;;;;;25.17;12.20;;;16.30;83.70;;;;;;9168232;19;20018;-65
2023/10/23 13:25:16;;;;;;;21.97;12.60;;;16.30;83.70;;;;;;9170136;19;20019;-65
2023/10/23 13:28:26;;;;;;;22.10;12.55;;;16.30;83.80;;;;;;9171990;19;20096;-66
2023/10/23 13:31:31;;;;;;;24.58;13.32;;;16.20;83.60;;;;;;9170876;19;20014;-66
2023/10/23 13:34:39;;;;;;;23.48;12.57;;;16.20;83.70;;;;;;9171529;19;20022;-66
2023/10/23 13:37:45;;;;;;;24.60;12.60;;;16.20;83.60;;;;;;9170445;19;20510;-66
2023/10/23 13:40:53;;;;;;;19.63;11.57;;;16.20;83.60;;;;;;9169465;19;20033;-67
2023/10/23 13:44:01;;;;;;;21.70;11.60;;;16.20;83.60;;;;;;9165814;19;20053;-66
2023/10/23 13:47:08;;;;;;;19.27;11.38;;;16.20;83.70;;;;;;9164634;19;20014;-67
2023/10/23 13:50:14;;;;;;;19.90;10.90;;;16.20;83.50;;;;;;9166720;19;20019;-67
2023/10/23 13:53:23;;;;;;;27.95;12.07;;;16.20;83.50;;;;;;9167167;19;20007;-67
2023/10/23 13:56:29;;;;;;;26.10;11.80;;;16.20;83.40;;;;;;9163860;19;20029;-67
2023/10/23 13:59:39;;;;;;;26.50;12.88;;;16.20;83.40;;;;;;9164578;19;20351;-67
2023/10/23 14:02:45;;;;;;;24.92;10.57;;;16.20;83.40;;;;;;9164790;19;20040;-67
2023/10/23 14:05:52;;;;;;;22.35;10.02;;;16.10;83.30;;;;;;9164577;19;20017;-66
2023/10/23 14:08:58;;;;;;;26.50;10.10;;;16.10;83.30;;;;;;9165327;19;20669;-67
2023/10/23 14:12:25;;;;;;;21.13;10.55;;;16.10;83.20;;;;;;9160431;19;20025;-67
2023/10/23 14:15:33;;;;;;;19.20;10.13;;;16.00;83.10;;;;;;9166502;19;20017;-68
2023/10/23 14:18:41;;;;;;;20.55;10.60;;;16.10;83.10;;;;;;9165875;19;20029;-68
2023/10/23 14:21:46;;;;;;;17.23;9.13;;;16.00;83.00;;;;;;9163110;19;20090;-67
2023/10/23 14:24:54;;;;;;;20.40;9.77;;;16.10;83.50;;;;;;9162689;19;20022;-66
2023/10/23 14:28:00;;;;;;;17.25;10.00;;;16.00;83.00;;;;;;9163625;19;20018;-67
2023/10/23 14:31:10;;;;;;;26.20;11.68;;;16.00;83.10;;;;;;9162121;19;20812;-67
2023/10/23 14:34:16;;;;;;;20.52;10.15;;;17.30;83.50;;;;;;9164594;19;20022;-68
2023/10/23 14:37:24;;;;;;;18.30;9.52;;;15.90;83.30;;;;;;9162254;19;20030;-67
2023/10/23 14:40:29;;;;;;;25.55;11.15;;;15.90;82.60;;;;;;9164687;19;20010;-67
2023/10/23 14:43:37;;;;;;;18.55;9.55;;;15.90;82.60;;;;;;9159883;19;20428;-67
2023/10/23 14:46:45;;;;;;;16.30;10.23;;;15.80;82.50;;;;;;9165414;19;20015;-67
2023/10/23 14:49:53;;;;;;;21.65;10.57;;;15.80;82.50;;;;;;9164904;19;20013;-67
2023/10/23 14:52:59;;;;;;;16.95;10.07;;;15.80;82.50;;;;;;9163063;19;20026;-67
2023/10/23 14:56:11;;;;;;;21.25;11.77;;;15.80;82.50;;;;;;9164210;19;20025;-67
2023/10/23 14:59:17;;;;;;;19.70;10.55;;;15.70;82.40;;;;;;9162145;19;20724;-67
2023/10/23 15:02:27;;;;;;;25.13;11.02;;;15.70;82.40;;;;;;9159356;19;20022;-66
2023/10/23 15:05:33;;;;;;;18.15;10.25;;;15.70;82.30;;;;;;9156896;19;20353;-67
2023/10/23 15:08:45;;;;;;;22.98;10.00;;;15.60;82.30;;;;;;9163004;19;20014;-67
2023/10/23 15:11:51;;;;;;;23.25;11.02;;;15.60;82.30;;;;;;9154348;19;20026;-66
2023/10/23 15:14:59;;;;;;;22.75;11.65;;;15.50;82.90;;;;;;9161388;19;20469;-66
2023/10/23 15:18:07;;;;;;;18.52;10.25;;;15.50;82.40;;;;;;9159819;19;20007;-67
2023/10/23 15:21:15;;;;;;;24.63;10.90;;;15.50;82.30;;;;;;9159358;19;20788;-67
2023/10/23 15:24:21;;;;;;;23.13;10.80;;;15.50;82.40;;;;;;9160277;19;20022;-67
2023/10/23 15:27:29;;;;;;;22.17;10.95;;;15.40;82.30;;;;;;9163494;19;20015;-67
2023/10/23 15:30:34;;;;;;;20.45;10.07;;;15.40;82.30;;;;;;9162095;19;20048;-65
2023/10/23 15:33:44;;;;;;;22.58;10.90;;;15.40;82.40;;;;;;9159468;19;20021;-66
2023/10/23 15:36:51;;;;;;;18.92;10.15;;;15.40;82.30;;;;;;9158017;19;20018;-66
2023/10/23 15:39:59;;;;;;;19.92;10.07;;;15.30;82.30;;;;;;9159967;19;20736;-68
2023/10/23 15:43:04;;;;;;;29.58;11.70;;;15.30;82.30;;;;;;9160778;19;20032;-65
2023/10/23 15:46:14;;;;;;;23.42;11.38;;;15.30;82.30;;;;;;9160243;19;20018;-65
2023/10/23 15:49:22;;;;;;;22.35;10.50;;;15.20;82.20;;;;;;9159726;19;20845;-67
2023/10/23 15:52:30;;;;;;;23.63;11.55;;;15.20;82.30;;;;;;9160958;19;20010;-67
2023/10/23 15:55:36;;;;;;;22.02;11.15;;;15.20;82.30;;;;;;9160863;19;20657;-66
2023/10/23 15:58:44;;;;;;;19.33;9.90;;;15.10;82.20;;;;;;9164155;19;20719;-67
2023/10/23 16:01:49;;;;;;;20.00;10.43;;;15.10;82.20;;;;;;9161729;19;20014;-69